Time;durP1;ratioP1;P1;durP2;ratioP2;P2;SDS_P1;SDS_P2;PMS_P1;PMS_P2;Temp;Humidity;BMP_temperature;BMP_pressure;BME280_temperature;BME280_humidity;BME280_pressure;Samples;Min_cycle;Max_cycle;Signal;HPM_P1;HPM_P2
2022/08/14 00:01:34;;;;;;;9.88;7.57;;;21.00;99.90;;;;;;4997245;28;20584;-82
2022/08/14 00:04:01;;;;;;;11.75;7.90;;;20.90;99.90;;;;;;5005117;28;20100;-83
2022/08/14 00:06:28;;;;;;;8.07;7.28;;;20.90;99.90;;;;;;4991961;28;20057;-84
2022/08/14 00:08:55;;;;;;;10.95;7.30;;;20.90;99.90;;;;;;4963759;28;20085;-84
2022/08/14 00:11:35;;;;;;;10.48;7.35;;;20.80;99.90;;;;;;4967864;28;20089;-83
2022/08/14 00:14:20;;;;;;;8.00;7.20;;;20.80;99.90;;;;;;4987245;28;20057;-84
2022/08/14 00:16:47;;;;;;;9.23;7.32;;;20.70;99.90;;;;;;4993562;28;22261;-83
2022/08/14 00:19:19;;;;;;;7.80;7.00;;;20.70;99.90;;;;;;4965758;28;20046;-84
2022/08/14 00:21:56;;;;;;;7.65;6.82;;;20.60;99.90;;;;;;4967860;28;20042;-84
2022/08/14 00:24:25;;;;;;;8.10;7.30;;;20.60;99.90;;;;;;4962837;28;20046;-83
2022/08/14 00:26:52;;;;;;;8.63;7.55;;;20.60;99.90;;;;;;4932608;28;20133;-83
2022/08/14 00:29:18;;;;;;;8.60;7.80;;;20.60;99.90;;;;;;4961176;28;20049;-83
2022/08/14 00:31:47;;;;;;;9.43;7.68;;;20.60;99.90;;;;;;4978445;28;20053;-81
2022/08/14 00:34:13;;;;;;;9.02;8.10;;;20.50;99.90;;;;;;5007496;28;20051;-83
2022/08/14 00:36:39;;;;;;;10.27;7.47;;;20.50;99.90;;;;;;4979292;28;20153;-82
2022/08/14 00:39:06;;;;;;;10.63;8.48;;;20.50;99.90;;;;;;4962662;28;20050;-83
2022/08/14 00:41:33;;;;;;;8.98;8.07;;;20.50;99.90;;;;;;4914517;28;20091;-83
2022/08/14 00:43:59;;;;;;;8.85;8.00;;;20.40;99.90;;;;;;4948827;28;20038;-83
2022/08/14 00:46:25;;;;;;;8.38;7.57;;;20.40;99.90;;;;;;4990128;28;20054;-83
2022/08/14 00:48:51;;;;;;;9.00;7.90;;;20.40;99.90;;;;;;4977580;28;20518;-83
2022/08/14 00:51:20;;;;;;;9.00;8.00;;;20.40;99.90;;;;;;4933486;28;20138;-83
2022/08/14 00:53:49;;;;;;;9.50;8.60;;;20.40;99.90;;;;;;4979907;28;20042;-83
2022/08/14 00:56:15;;;;;;;9.80;8.85;;;20.30;99.90;;;;;;4977777;28;20072;-83
2022/08/14 00:58:41;;;;;;;9.50;8.60;;;20.30;99.90;;;;;;4974183;28;20121;-83
2022/08/14 01:01:10;;;;;;;9.27;8.35;;;20.40;99.90;;;;;;4978116;28;20355;-83
2022/08/14 01:03:38;;;;;;;9.40;8.50;;;20.30;99.90;;;;;;4987465;28;20057;-82
2022/08/14 01:06:07;;;;;;;10.85;9.20;;;20.30;99.90;;;;;;4962649;28;20898;-84
2022/08/14 01:08:35;;;;;;;8.88;7.68;;;20.20;99.90;;;;;;4980704;28;20057;-83
2022/08/14 01:11:01;;;;;;;8.75;7.57;;;20.30;99.90;;;;;;4983426;28;20054;-82
2022/08/14 01:13:38;;;;;;;9.30;8.07;;;20.20;99.90;;;;;;4939122;28;20054;-83
2022/08/14 01:16:07;;;;;;;9.82;8.93;;;20.20;99.90;;;;;;4985027;28;20047;-83
2022/08/14 01:21:58;;;;;;;9.80;8.85;;;20.10;99.90;;;;;;5000798;28;20042;-84
2022/08/14 01:24:31;;;;;;;11.90;8.98;;;20.10;99.90;;;;;;4945953;28;20050;-84
2022/08/14 01:26:58;;;;;;;9.40;8.55;;;20.10;99.90;;;;;;4986109;28;20047;-83
2022/08/14 01:29:26;;;;;;;10.43;8.68;;;20.10;99.90;;;;;;4982904;28;21312;-83
2022/08/14 01:31:52;;;;;;;9.73;8.75;;;20.10;99.90;;;;;;4982852;28;20121;-84
2022/08/14 01:34:19;;;;;;;9.48;8.57;;;20.00;99.90;;;;;;4994560;28;20050;-83
2022/08/14 01:36:46;;;;;;;8.85;7.97;;;20.00;99.90;;;;;;4984894;28;20047;-83
2022/08/14 01:39:17;;;;;;;9.18;8.30;;;20.10;99.90;;;;;;4984470;28;20047;-83
2022/08/14 01:41:55;;;;;;;10.20;9.20;;;20.00;99.90;;;;;;4985253;28;20046;-83
2022/08/14 01:44:27;;;;;;;10.35;9.35;;;20.00;99.90;;;;;;4982076;28;20136;-83
2022/08/14 01:46:54;;;;;;;9.50;8.60;;;19.90;99.90;;;;;;4964806;28;20073;-83
2022/08/14 01:49:21;;;;;;;9.57;8.60;;;19.90;99.90;;;;;;4964063;28;20053;-83
2022/08/14 01:51:53;;;;;;;10.35;9.18;;;19.90;99.90;;;;;;4947616;28;20081;-83
2022/08/14 01:54:20;;;;;;;12.55;9.75;;;19.90;99.90;;;;;;4966177;28;20133;-83
2022/08/14 01:56:47;;;;;;;10.20;9.20;;;19.80;99.90;;;;;;4970929;28;20054;-83
2022/08/14 01:59:18;;;;;;;11.55;9.70;;;19.80;99.90;;;;;;4972619;28;20640;-83
2022/08/14 02:01:48;;;;;;;9.60;8.70;;;19.80;99.90;;;;;;4978010;28;20130;-84
2022/08/14 02:04:15;;;;;;;10.70;9.70;;;19.80;99.90;;;;;;5012488;28;20046;-81
2022/08/14 02:06:42;;;;;;;10.85;9.50;;;19.80;99.90;;;;;;4999204;28;20053;-82
2022/08/14 02:09:09;;;;;;;10.00;8.23;;;19.70;99.90;;;;;;4950031;28;20047;-82
2022/08/14 02:11:35;;;;;;;10.35;9.27;;;19.80;99.90;;;;;;4966246;28;20515;-83
2022/08/14 02:14:10;;;;;;;12.02;9.88;;;19.70;99.90;;;;;;4975973;28;20146;-83
2022/08/14 02:16:42;;;;;;;10.25;9.10;;;19.70;99.90;;;;;;4960286;28;20042;-83
2022/08/14 02:19:13;;;;;;;10.65;9.60;;;19.70;99.90;;;;;;4927581;29;20047;-83
2022/08/14 02:21:42;;;;;;;;;;;19.70;99.90;;;;;;4944778;28;20042;-82
2022/08/14 02:24:09;;;;;;;11.30;10.20;;;19.70;99.90;;;;;;4972366;28;19976;-83
2022/08/14 02:26:38;;;;;;;10.70;9.50;;;19.70;99.90;;;;;;4978970;28;20081;-84
2022/08/14 02:29:06;;;;;;;11.50;10.13;;;19.70;99.90;;;;;;4895416;28;20053;-83
2022/08/14 02:31:36;;;;;;;12.98;9.07;;;19.70;99.90;;;;;;4913350;28;20054;-83
2022/08/14 02:34:12;;;;;;;10.18;9.13;;;19.60;99.90;;;;;;4928784;28;20502;-83
2022/08/14 02:36:40;;;;;;;11.38;10.27;;;19.60;99.90;;;;;;4975927;28;20045;-83
2022/08/14 02:39:08;;;;;;;11.18;9.65;;;19.60;99.90;;;;;;4978056;28;20061;-83
2022/08/14 02:41:35;;;;;;;11.63;10.48;;;19.50;99.90;;;;;;4944590;28;20050;-83
2022/08/14 02:44:03;;;;;;;10.43;9.40;;;19.50;99.90;;;;;;4959494;28;20039;-83
2022/08/14 02:46:29;;;;;;;10.95;9.88;;;19.50;99.90;;;;;;4961976;28;20153;-83
2022/08/14 02:48:56;;;;;;;10.30;9.30;;;19.40;99.90;;;;;;4964484;28;20047;-83
2022/08/14 02:51:24;;;;;;;10.88;9.77;;;19.40;99.90;;;;;;4944723;28;20046;-84
2022/08/14 02:53:53;;;;;;;11.52;10.43;;;19.40;99.90;;;;;;4962829;28;20166;-84
2022/08/14 02:56:19;;;;;;;11.68;10.57;;;19.40;99.90;;;;;;4975274;28;20053;-83
2022/08/14 02:58:48;;;;;;;11.20;10.10;;;19.40;99.90;;;;;;4947222;28;20038;-83
2022/08/14 03:01:17;;;;;;;11.82;10.70;;;19.40;99.90;;;;;;4944293;28;20042;-83
2022/08/14 03:03:44;;;;;;;11.63;10.57;;;19.30;99.90;;;;;;4946780;28;20039;-83
2022/08/14 03:06:12;;;;;;;11.82;10.63;;;19.30;99.90;;;;;;4990878;28;20047;-82
2022/08/14 03:08:39;;;;;;;11.38;10.38;;;19.30;99.90;;;;;;4926067;28;20047;-82
2022/08/14 03:11:09;;;;;;;11.35;10.35;;;19.30;99.90;;;;;;4960324;28;20058;-83
2022/08/14 03:13:38;;;;;;;11.85;10.57;;;19.20;99.90;;;;;;4993786;28;20113;-82
2022/08/14 03:16:07;;;;;;;15.32;11.10;;;19.30;99.90;;;;;;4997148;28;20086;-82
2022/08/14 03:18:33;;;;;;;12.07;10.85;;;19.20;99.90;;;;;;4975442;28;20043;-82
2022/08/14 03:21:04;;;;;;;12.02;10.63;;;19.20;99.90;;;;;;4926886;28;20054;-82
2022/08/14 03:23:34;;;;;;;12.68;11.48;;;19.20;99.90;;;;;;4976358;28;20053;-82
2022/08/14 03:26:02;;;;;;;13.00;11.48;;;19.10;99.90;;;;;;4974676;28;20057;-82
2022/08/14 03:28:29;;;;;;;12.52;11.38;;;19.10;99.90;;;;;;4927630;28;20777;-82
2022/08/14 03:30:59;;;;;;;11.90;10.70;;;19.10;99.90;;;;;;4914652;28;20304;-82
2022/08/14 03:33:26;;;;;;;13.82;11.75;;;19.10;99.90;;;;;;4945399;28;20055;-82
2022/08/14 03:35:53;;;;;;;13.55;12.35;;;19.10;99.90;;;;;;4944217;28;20487;-82
2022/08/14 03:38:19;;;;;;;12.95;11.75;;;19.00;99.90;;;;;;4927198;28;20043;-82
2022/08/14 03:40:49;;;;;;;12.00;10.85;;;19.00;99.90;;;;;;4947531;28;20101;-81
2022/08/14 03:43:15;;;;;;;12.38;11.13;;;19.00;99.90;;;;;;4921450;28;20849;-81
2022/08/14 03:45:43;;;;;;;12.73;11.43;;;19.00;99.90;;;;;;4941219;28;20601;-82
2022/08/14 03:48:22;;;;;;;12.93;11.82;;;19.00;99.90;;;;;;4934312;28;20054;-82
2022/08/14 03:50:53;;;;;;;12.88;11.57;;;19.00;99.90;;;;;;4972308;28;20061;-82
2022/08/14 03:53:19;;;;;;;13.98;12.57;;;19.00;99.90;;;;;;4960527;28;20535;-82
2022/08/14 03:55:48;;;;;;;13.95;11.77;;;18.90;99.90;;;;;;4926895;28;20051;-83
2022/08/14 03:58:14;;;;;;;12.05;10.90;;;18.90;99.90;;;;;;4958395;28;20538;-82
2022/08/14 04:00:41;;;;;;;13.65;12.23;;;18.90;99.90;;;;;;4959111;28;20181;-82
2022/08/14 04:03:08;;;;;;;13.05;11.77;;;18.90;99.90;;;;;;4926322;28;20051;-82
2022/08/14 04:05:37;;;;;;;12.50;11.27;;;18.90;99.90;;;;;;4926612;28;20050;-82
2022/08/14 04:08:07;;;;;;;13.25;11.80;;;18.80;99.90;;;;;;4959387;28;20054;-83
2022/08/14 04:10:33;;;;;;;13.55;12.30;;;18.80;99.90;;;;;;4960196;28;20054;-82
2022/08/14 04:13:01;;;;;;;12.50;11.48;;;18.80;99.90;;;;;;4974485;28;20166;-82
2022/08/14 04:15:27;;;;;;;13.15;11.80;;;18.80;99.90;;;;;;4952743;28;20699;-83
2022/08/14 04:17:54;;;;;;;13.35;12.05;;;18.80;99.90;;;;;;4949504;28;20867;-82
2022/08/14 04:20:20;;;;;;;13.60;12.23;;;18.80;99.90;;;;;;4912468;28;20057;-82
2022/08/14 04:22:49;;;;;;;12.95;11.70;;;18.80;99.90;;;;;;4990166;28;20471;-82
2022/08/14 04:25:15;;;;;;;12.95;11.70;;;18.80;99.90;;;;;;4906764;28;20134;-82
2022/08/14 04:27:41;;;;;;;13.18;11.88;;;18.80;99.90;;;;;;4958537;28;20648;-81
2022/08/14 04:30:08;;;;;;;12.55;11.52;;;18.80;99.90;;;;;;4925972;28;20053;-81
2022/08/14 04:32:34;;;;;;;13.43;11.95;;;18.80;99.90;;;;;;4927696;28;20047;-82
2022/08/14 04:35:01;;;;;;;12.38;11.18;;;18.80;99.90;;;;;;4924145;28;20047;-82
2022/08/14 04:45:43;;;;;;;13.15;11.98;;;19.00;99.90;;;;;;4942571;28;20050;-82
2022/08/14 04:48:13;;;;;;;12.80;11.70;;;19.10;99.90;;;;;;4953437;28;20117;-82
2022/08/14 04:50:50;;;;;;;12.85;11.73;;;19.10;99.90;;;;;;4970323;28;20085;-81
2022/08/14 04:53:21;;;;;;;13.23;11.98;;;19.20;99.90;;;;;;4950373;28;20157;-82
2022/08/14 04:55:49;;;;;;;13.45;11.73;;;19.20;99.90;;;;;;4925899;28;20488;-82
2022/08/14 04:58:21;;;;;;;12.65;11.45;;;19.20;99.90;;;;;;4957626;28;20053;-83
2022/08/14 05:00:49;;;;;;;12.75;11.43;;;19.30;99.90;;;;;;4958119;28;20073;-83
2022/08/14 05:03:20;;;;;;;13.05;11.82;;;19.30;99.90;;;;;;4940389;28;20050;-83
2022/08/14 05:05:58;;;;;;;12.70;11.60;;;19.30;99.90;;;;;;4939716;28;20047;-82
2022/08/14 05:08:24;;;;;;;12.75;11.27;;;19.30;99.90;;;;;;4943099;28;20058;-84
2022/08/14 05:10:53;;;;;;;11.75;10.73;;;19.40;99.90;;;;;;4958005;28;20585;-82
2022/08/14 05:13:25;;;;;;;12.90;11.68;;;19.40;99.90;;;;;;4916101;28;20073;-82
2022/08/14 05:15:53;;;;;;;12.77;11.48;;;19.50;99.90;;;;;;4929078;28;20053;-82
2022/08/14 05:18:22;;;;;;;12.57;10.80;;;19.60;99.90;;;;;;4976968;28;20038;-83
2022/08/14 05:20:53;;;;;;;11.93;10.73;;;19.60;99.90;;;;;;4964300;28;20046;-82
2022/08/14 05:23:28;;;;;;;11.57;10.50;;;19.70;99.90;;;;;;4977775;28;20049;-83
2022/08/14 05:26:02;;;;;;;11.90;10.75;;;19.90;99.90;;;;;;4933840;28;20337;-82
2022/08/14 05:28:31;;;;;;;12.07;10.73;;;20.20;99.90;;;;;;4964773;28;20046;-83
2022/08/14 05:31:06;;;;;;;13.05;11.85;;;20.50;99.90;;;;;;4994932;28;20137;-83
2022/08/14 05:33:33;;;;;;;11.80;10.70;;;20.70;99.90;;;;;;4978854;28;20053;-83
2022/08/14 05:36:04;;;;;;;11.80;10.60;;;21.00;99.90;;;;;;4997592;28;20050;-82
2022/08/14 05:38:34;;;;;;;11.13;9.97;;;21.20;99.90;;;;;;4965051;28;20045;-83
2022/08/14 05:41:03;;;;;;;11.00;9.90;;;21.30;99.90;;;;;;4976680;28;20108;-83
2022/08/14 05:43:30;;;;;;;10.95;10.05;;;21.60;99.90;;;;;;4962663;28;20051;-83
2022/08/14 05:45:58;;;;;;;11.02;9.93;;;21.70;99.90;;;;;;4980485;28;20042;-83
2022/08/14 05:48:24;;;;;;;12.32;9.43;;;21.90;99.90;;;;;;4964670;28;20057;-82
2022/08/14 05:50:53;;;;;;;10.07;9.10;;;21.90;99.90;;;;;;4963247;28;20065;-83
2022/08/14 05:53:21;;;;;;;10.65;9.75;;;21.90;99.90;;;;;;4963026;28;20077;-83
2022/08/14 05:55:48;;;;;;;10.25;9.20;;;22.20;99.90;;;;;;4964168;28;20124;-80
2022/08/14 05:58:14;;;;;;;115.50;104.63;;;22.30;99.90;;;;;;4981672;28;20045;-81
2022/08/14 06:00:43;;;;;;;23.88;21.70;;;22.40;99.90;;;;;;4981420;28;20494;-80
2022/08/14 06:03:18;;;;;;;11.85;10.80;;;22.60;99.90;;;;;;4980946;28;20565;-80
2022/08/14 06:05:46;;;;;;;10.65;9.55;;;22.80;99.90;;;;;;4972125;28;20101;-80
2022/08/14 06:08:27;;;;;;;14.48;11.45;;;22.90;99.90;;;;;;4950150;28;20051;-80
2022/08/14 06:10:56;;;;;;;20.00;18.05;;;23.20;99.90;;;;;;4981198;28;20053;-81
2022/08/14 06:13:23;;;;;;;11.88;9.88;;;23.20;99.90;;;;;;4973218;28;20058;-82
2022/08/14 06:15:49;;;;;;;14.57;13.15;;;23.30;99.90;;;;;;4947887;28;20050;-82
2022/08/14 06:18:16;;;;;;;9.52;8.57;;;23.40;99.90;;;;;;4945217;28;20039;-78
2022/08/14 06:20:43;;;;;;;9.60;8.70;;;23.50;99.90;;;;;;4946822;28;20121;-81
2022/08/14 06:23:09;;;;;;;11.05;10.02;;;23.60;99.90;;;;;;4930104;28;20049;-85
2022/08/14 06:25:35;;;;;;;8.63;7.70;;;23.40;99.90;;;;;;4944989;28;20113;-85
2022/08/14 06:28:02;;;;;;;10.30;9.25;;;23.60;99.90;;;;;;4962003;28;20138;-85
2022/08/14 06:30:32;;;;;;;8.80;7.97;;;23.70;99.90;;;;;;4968010;28;20137;-85
2022/08/14 06:32:59;;;;;;;8.68;7.88;;;23.70;99.90;;;;;;4976631;28;20058;-85
2022/08/14 06:35:31;;;;;;;11.23;10.18;;;23.90;99.90;;;;;;4965532;28;20050;-85
2022/08/14 06:38:07;;;;;;;8.75;7.85;;;23.90;99.90;;;;;;4945679;28;20047;-85
2022/08/14 06:40:52;;;;;;;9.80;7.95;;;24.10;99.90;;;;;;4939734;28;20133;-84
2022/08/14 06:43:21;;;;;;;8.85;8.00;;;24.10;99.90;;;;;;4967037;28;20145;-85
2022/08/14 06:45:48;;;;;;;8.38;7.43;;;24.30;99.90;;;;;;4933955;28;20055;-86
2022/08/14 06:48:22;;;;;;;9.13;7.47;;;24.40;99.90;;;;;;4934576;28;20046;-83
2022/08/14 06:50:50;;;;;;;7.70;6.90;;;24.50;99.90;;;;;;4975682;28;20047;-82
2022/08/14 06:53:18;;;;;;;7.82;6.72;;;24.60;99.90;;;;;;4960995;28;20039;-81
2022/08/14 06:55:46;;;;;;;10.43;8.25;;;24.80;99.90;;;;;;4987026;28;20046;-80
2022/08/14 06:58:14;;;;;;;10.13;7.57;;;25.00;99.90;;;;;;4961473;28;20058;-81
2022/08/14 07:05:44;;;;;;;8.35;7.43;;;25.10;99.90;;;;;;4996320;28;20043;-79
2022/08/14 07:06:17;;;;;;;8.48;7.68;;;25.60;99.90;;;;;;4952018;28;20050;-79
2022/08/14 07:08:43;;;;;;;8.10;6.78;;;25.90;99.90;;;;;;4937614;28;20046;-81
2022/08/14 07:11:13;;;;;;;7.68;6.68;;;26.10;99.90;;;;;;4943687;28;20046;-80
2022/08/14 07:13:39;;;;;;;6.80;6.10;;;26.40;99.90;;;;;;4973420;28;20510;-80
2022/08/14 07:16:05;;;;;;;7.45;6.63;;;26.40;99.90;;;;;;4974832;28;20101;-80
2022/08/14 07:18:33;;;;;;;14.32;13.10;;;26.70;99.90;;;;;;4963750;28;20043;-81
2022/08/14 07:21:01;;;;;;;10.50;7.07;;;26.90;99.90;;;;;;4964069;28;21052;-80
2022/08/14 07:23:27;;;;;;;8.25;6.75;;;27.10;99.90;;;;;;4965669;28;20415;-80
2022/08/14 07:25:55;;;;;;;12.45;7.30;;;27.30;99.90;;;;;;4947777;28;20046;-83
2022/08/14 07:28:36;;;;;;;6.80;5.85;;;27.50;99.90;;;;;;4980406;28;20086;-83
2022/08/14 07:31:05;;;;;;;8.25;6.60;;;27.50;99.90;;;;;;4962469;28;20050;-82
2022/08/14 07:33:41;;;;;;;7.22;5.97;;;27.70;99.90;;;;;;4949468;28;20102;-84
2022/08/14 07:36:09;;;;;;;7.78;6.40;;;28.00;99.90;;;;;;4997721;28;20093;-84
2022/08/14 07:38:39;;;;;;;7.65;6.50;;;28.20;99.90;;;;;;4960798;28;20046;-79
2022/08/14 07:41:07;;;;;;;8.30;6.40;;;28.40;99.90;;;;;;4946580;28;20049;-85
2022/08/14 07:43:34;;;;;;;7.93;6.13;;;28.60;99.90;;;;;;4993911;28;20477;-85
2022/08/14 07:46:01;;;;;;;11.25;7.82;;;28.60;99.30;;;;;;4947101;28;20101;-86
2022/08/14 07:48:27;;;;;;;8.55;5.68;;;28.90;99.30;;;;;;4950958;28;20081;-86
2022/08/14 07:50:53;;;;;;;6.68;5.97;;;28.90;97.70;;;;;;4951656;28;20811;-86
2022/08/14 07:53:20;;;;;;;6.28;5.68;;;29.00;97.30;;;;;;4966782;28;20049;-86
2022/08/14 07:55:50;;;;;;;9.18;6.07;;;28.90;97.30;;;;;;4972980;28;20046;-86
2022/08/14 07:58:19;;;;;;;8.63;7.82;;;29.10;96.90;;;;;;4964533;28;20042;-87
2022/08/14 08:00:45;;;;;;;7.80;7.00;;;29.30;97.30;;;;;;4966402;28;20494;-88
2022/08/14 08:03:12;;;;;;;7.07;5.72;;;29.50;96.60;;;;;;4947534;28;20188;-88
2022/08/14 08:05:40;;;;;;;11.93;8.35;;;29.70;95.60;;;;;;4950035;28;20465;-88
2022/08/14 08:08:07;;;;;;;8.82;6.00;;;29.60;95.10;;;;;;4982283;28;20060;-86
2022/08/14 08:10:35;;;;;;;6.18;5.57;;;29.50;94.90;;;;;;4962653;28;20050;-78
2022/08/14 08:13:13;;;;;;;6.28;5.68;;;29.80;94.90;;;;;;4973938;28;20070;-86
2022/08/14 08:15:42;;;;;;;7.38;6.53;;;29.90;93.80;;;;;;4970600;28;20046;-87
2022/08/14 08:18:10;;;;;;;6.67;5.97;;;30.00;93.30;;;;;;4979084;28;20122;-87
2022/08/14 08:20:43;;;;;;;9.13;5.95;;;30.20;92.90;;;;;;4963449;28;20050;-84
2022/08/14 08:23:09;;;;;;;10.45;8.48;;;30.40;91.90;;;;;;4953750;28;20047;-85
2022/08/14 08:25:37;;;;;;;6.72;5.85;;;30.20;92.10;;;;;;4968658;28;20116;-84
2022/08/14 08:28:14;;;;;;;7.65;5.50;;;30.40;91.60;;;;;;4984027;28;20125;-79
2022/08/14 08:30:48;;;;;;;10.30;8.10;;;30.50;91.50;;;;;;4946589;28;20049;-86
2022/08/14 08:33:15;;;;;;;6.13;5.55;;;30.60;91.20;;;;;;4988245;28;20038;-81
2022/08/14 08:35:42;;;;;;;6.28;5.63;;;30.90;90.40;;;;;;4969745;28;20058;-86
2022/08/14 08:38:16;;;;;;;7.43;6.80;;;30.80;89.60;;;;;;4981800;28;20074;-86
2022/08/14 08:40:47;;;;;;;5.85;5.30;;;30.80;88.30;;;;;;4953478;28;20129;-86
2022/08/14 08:43:19;;;;;;;6.78;5.20;;;31.10;88.30;;;;;;4991427;28;20780;-86
2022/08/14 08:45:59;;;;;;;5.97;5.38;;;31.50;87.40;;;;;;4980973;28;20131;-87
2022/08/14 08:48:47;;;;;;;8.63;6.35;;;31.50;86.80;;;;;;4961233;28;20055;-85
2022/08/14 08:51:42;;;;;;;6.05;4.80;;;31.60;84.60;;;;;;4972950;28;20083;-88
2022/08/14 08:54:13;;;;;;;7.03;6.32;;;31.40;81.70;;;;;;4959637;28;20058;-85
2022/08/14 08:56:46;;;;;;;6.60;4.97;;;31.70;82.90;;;;;;4982497;28;20105;-86
2022/08/14 08:59:32;;;;;;;7.47;4.93;;;32.10;82.10;;;;;;4943637;28;20085;-83
2022/08/14 09:02:07;;;;;;;6.32;5.57;;;32.30;79.10;;;;;;4994522;28;20510;-89
2022/08/14 09:04:37;;;;;;;7.93;5.07;;;32.10;78.40;;;;;;5004476;28;20613;-88
2022/08/14 09:07:03;;;;;;;5.72;4.63;;;32.50;78.70;;;;;;4984673;28;20593;-88
2022/08/14 09:09:31;;;;;;;5.32;4.78;;;32.40;76.40;;;;;;4947523;28;20050;-88
2022/08/14 09:12:00;;;;;;;5.53;5.05;;;32.50;75.60;;;;;;4958759;28;20112;-88
2022/08/14 09:14:31;;;;;;;5.57;4.22;;;32.20;74.70;;;;;;4961981;28;20082;-88
2022/08/14 09:16:58;;;;;;;6.57;5.95;;;32.50;75.40;;;;;;4963859;28;20047;-88
2022/08/14 09:19:26;;;;;;;6.03;5.07;;;32.40;74.20;;;;;;4972324;28;20054;-89
2022/08/14 09:21:53;;;;;;;11.45;4.97;;;33.20;73.40;;;;;;4997844;28;21716;-81
2022/08/14 09:24:20;;;;;;;6.63;5.43;;;33.30;72.80;;;;;;4968380;28;20034;-88
2022/08/14 09:26:47;;;;;;;7.82;7.13;;;33.30;72.70;;;;;;4994702;28;20046;-87
2022/08/14 09:29:13;;;;;;;6.20;4.40;;;33.70;71.20;;;;;;4991065;28;20082;-87
2022/08/14 09:31:45;;;;;;;6.75;4.57;;;33.80;70.00;;;;;;4912591;28;20046;-86
2022/08/14 09:34:26;;;;;;;6.45;5.25;;;33.60;68.60;;;;;;4942904;28;20046;-90
2022/08/14 09:37:10;;;;;;;5.78;5.00;;;33.80;66.60;;;;;;4972880;28;20051;-88
2022/08/14 09:39:44;;;;;;;5.45;4.95;;;33.70;66.10;;;;;;4965250;28;20141;-88
2022/08/14 09:42:38;;;;;;;5.80;5.20;;;33.60;65.70;;;;;;4978946;28;20062;-85
2022/08/14 09:45:16;;;;;;;8.20;4.97;;;33.70;67.10;;;;;;4991322;28;20265;-88
2022/08/14 09:47:51;;;;;;;5.82;4.88;;;33.60;66.10;;;;;;4990413;28;20527;-88
2022/08/14 09:50:30;;;;;;;5.47;4.75;;;33.50;66.40;;;;;;4963354;28;20149;-88
2022/08/14 09:53:01;;;;;;;6.13;4.35;;;33.80;65.80;;;;;;4990413;28;20053;-85
2022/08/14 09:55:32;;;;;;;6.03;4.30;;;33.90;66.10;;;;;;4978802;28;20069;-79
2022/08/14 09:58:16;;;;;;;8.90;6.90;;;34.30;64.80;;;;;;4985444;28;20070;-80
2022/08/14 10:00:47;;;;;;;7.22;5.05;;;34.30;63.30;;;;;;4990305;28;20478;-85
2022/08/14 10:03:36;;;;;;;9.48;8.60;;;34.40;64.20;;;;;;4956319;28;20043;-85
2022/08/14 10:06:21;;;;;;;8.27;4.97;;;34.70;62.50;;;;;;4945498;28;20047;-85
2022/08/14 10:09:01;;;;;;;5.32;4.50;;;34.50;61.10;;;;;;4994322;28;20052;-85
2022/08/14 10:11:35;;;;;;;5.35;4.85;;;34.70;61.90;;;;;;4972588;28;20137;-85
2022/08/14 10:14:16;;;;;;;7.95;4.60;;;34.50;60.20;;;;;;4983145;28;20132;-84
2022/08/14 10:16:51;;;;;;;5.32;4.55;;;34.60;60.60;;;;;;4966902;28;20099;-85
2022/08/14 10:19:18;;;;;;;6.43;4.80;;;34.60;61.50;;;;;;4965015;28;20046;-85
2022/08/14 10:22:07;;;;;;;5.28;4.78;;;34.70;59.80;;;;;;5001408;28;20068;-86
2022/08/14 10:24:39;;;;;;;5.35;4.72;;;34.90;60.70;;;;;;4969128;28;20129;-86
2022/08/14 10:27:22;;;;;;;7.00;6.30;;;35.30;58.40;;;;;;4983192;28;20126;-86
2022/08/14 10:29:58;;;;;;;4.45;4.03;;;35.00;58.40;;;;;;5000375;28;20889;-86
2022/08/14 10:32:25;;;;;;;5.53;4.47;;;35.60;59.40;;;;;;4951520;28;20046;-85
2022/08/14 10:35:06;;;;;;;6.05;4.72;;;35.40;58.90;;;;;;4968544;28;20042;-85
2022/08/14 10:37:48;;;;;;;5.38;4.30;;;35.20;56.40;;;;;;4968892;28;20401;-84
2022/08/14 10:40:35;;;;;;;6.47;3.70;;;35.10;55.40;;;;;;4984179;28;20026;-85
2022/08/14 10:43:01;;;;;;;6.47;4.28;;;34.70;55.10;;;;;;4952331;28;20049;-85
2022/08/14 10:45:32;;;;;;;6.68;5.30;;;34.80;56.30;;;;;;4967429;28;20691;-85
2022/08/14 10:48:00;;;;;;;6.40;5.15;;;34.70;57.10;;;;;;4995884;28;20045;-85
2022/08/14 10:50:40;;;;;;;5.20;4.75;;;34.60;57.10;;;;;;4987435;28;20038;-75
2022/08/14 10:53:06;;;;;;;8.80;7.90;;;35.40;57.30;;;;;;5002962;28;20050;-79
2022/08/14 10:55:40;;;;;;;5.07;4.68;;;35.10;55.80;;;;;;4949433;28;20042;-80
2022/08/14 10:58:10;;;;;;;7.00;6.40;;;35.20;55.20;;;;;;5006205;28;20059;-79
2022/08/14 11:00:38;;;;;;;6.97;6.28;;;34.80;56.00;;;;;;4959364;28;20054;-81
2022/08/14 11:03:12;;;;;;;5.20;4.70;;;35.00;56.00;;;;;;4965218;28;20834;-79
2022/08/14 11:05:41;;;;;;;5.10;4.60;;;35.30;54.70;;;;;;4966470;28;20068;-81
2022/08/14 11:08:09;;;;;;;5.77;4.57;;;35.50;54.00;;;;;;4945692;28;20153;-81
2022/08/14 11:10:46;;;;;;;9.05;7.82;;;35.30;53.80;;;;;;4960985;28;20337;-79
2022/08/14 11:13:21;;;;;;;5.28;4.78;;;35.30;53.60;;;;;;4961074;28;20157;-80
2022/08/14 11:15:48;;;;;;;5.97;5.32;;;35.60;54.20;;;;;;4962146;28;20399;-80
2022/08/14 11:18:17;;;;;;;5.57;5.00;;;36.10;55.10;;;;;;4952972;28;20209;-81
2022/08/14 11:20:49;;;;;;;5.75;4.75;;;36.60;53.20;;;;;;4976829;28;20100;-80
2022/08/14 11:23:18;;;;;;;5.10;4.60;;;37.10;53.00;;;;;;4994548;28;20041;-80
2022/08/14 11:25:46;;;;;;;5.37;4.87;;;36.40;51.30;;;;;;4975001;28;20050;-78
2022/08/14 11:28:13;;;;;;;9.13;4.70;;;35.70;52.20;;;;;;4963320;28;20152;-80
2022/08/14 11:30:43;;;;;;;5.88;4.57;;;35.60;53.00;;;;;;4964466;28;20125;-81
2022/08/14 11:33:10;;;;;;;5.90;5.13;;;36.20;53.10;;;;;;4945305;28;20078;-84
2022/08/14 11:35:37;;;;;;;7.20;5.78;;;36.40;50.90;;;;;;4977058;28;20050;-81
2022/08/14 11:38:05;;;;;;;7.32;4.43;;;36.50;52.30;;;;;;4960053;28;20125;-80
2022/08/14 11:40:34;;;;;;;6.78;4.90;;;36.50;51.50;;;;;;4978760;28;20100;-81
2022/08/14 11:43:06;;;;;;;6.28;5.57;;;36.00;52.00;;;;;;4959782;28;20581;-83
2022/08/14 11:45:34;;;;;;;7.40;6.75;;;35.70;52.90;;;;;;4947057;28;20050;-83
2022/08/14 11:48:19;;;;;;;7.55;6.85;;;35.80;52.40;;;;;;4993764;28;20046;-83
2022/08/14 11:50:47;;;;;;;8.13;7.32;;;35.70;51.60;;;;;;4994497;28;20700;-84
2022/08/14 11:53:24;;;;;;;6.07;5.47;;;35.50;50.30;;;;;;4961680;28;20688;-83
2022/08/14 11:56:01;;;;;;;5.53;4.07;;;36.00;51.90;;;;;;4974420;28;20055;-83
2022/08/14 11:58:30;;;;;;;4.88;4.43;;;35.90;51.00;;;;;;4973192;28;20038;-84
2022/08/14 12:01:01;;;;;;;5.03;4.10;;;35.80;50.50;;;;;;4993978;28;20133;-83
2022/08/14 12:03:55;;;;;;;4.78;4.18;;;35.80;50.10;;;;;;4993048;28;20050;-84
2022/08/14 12:06:21;;;;;;;6.28;4.70;;;36.20;50.40;;;;;;4959131;28;20050;-83
2022/08/14 12:08:52;;;;;;;6.05;5.55;;;36.20;50.70;;;;;;4959194;28;20570;-83
2022/08/14 12:11:19;;;;;;;4.50;4.10;;;36.40;50.30;;;;;;4993045;28;20042;-83
2022/08/14 12:13:46;;;;;;;5.40;4.88;;;36.40;50.10;;;;;;4962298;28;20066;-83
2022/08/14 12:16:15;;;;;;;4.72;4.28;;;36.30;49.80;;;;;;4957758;28;20493;-84
2022/08/14 12:18:43;;;;;;;10.38;9.48;;;36.70;49.70;;;;;;4960051;28;20039;-86
2022/08/14 12:21:22;;;;;;;6.35;5.53;;;36.50;48.60;;;;;;4948476;28;20467;-82
2022/08/14 12:24:02;;;;;;;6.68;5.65;;;36.50;50.20;;;;;;4986132;28;20069;-83
2022/08/14 12:26:33;;;;;;;4.63;4.22;;;36.50;49.00;;;;;;4959693;28;20556;-80
2022/08/14 12:29:15;;;;;;;5.15;4.65;;;36.90;49.50;;;;;;4978983;28;20058;-82
2022/08/14 12:31:45;;;;;;;5.20;4.70;;;36.70;49.50;;;;;;5006534;28;20059;-81
2022/08/14 12:34:14;;;;;;;14.63;13.32;;;37.10;48.60;;;;;;4986300;28;20049;-81
2022/08/14 12:36:41;;;;;;;7.03;6.20;;;37.00;48.70;;;;;;4947551;28;20054;-82
2022/08/14 12:39:22;;;;;;;4.10;3.67;;;36.90;47.50;;;;;;4946869;28;20130;-81
2022/08/14 12:42:05;;;;;;;7.20;6.38;;;36.90;47.70;;;;;;5011227;28;20148;-82
2022/08/14 12:44:34;;;;;;;6.57;4.60;;;36.80;47.50;;;;;;4993986;28;20096;-82
2022/08/14 12:47:11;;;;;;;8.05;5.53;;;36.60;46.70;;;;;;4977572;28;20165;-80
2022/08/14 12:49:37;;;;;;;7.95;7.03;;;36.30;47.50;;;;;;4992450;28;20048;-81
2022/08/14 12:52:06;;;;;;;5.57;4.70;;;35.50;47.70;;;;;;4927512;28;20050;-81
2022/08/14 12:54:33;;;;;;;6.22;5.63;;;35.60;48.10;;;;;;4959274;28;20135;-81
2022/08/14 12:57:06;;;;;;;9.45;8.63;;;35.70;48.10;;;;;;4924670;28;20695;-81
2022/08/14 12:59:34;;;;;;;8.55;7.75;;;35.70;48.40;;;;;;4961937;28;20050;-81
2022/08/14 13:02:01;;;;;;;9.50;7.63;;;35.90;48.20;;;;;;4959345;28;20053;-81
2022/08/14 13:04:30;;;;;;;9.98;8.95;;;36.30;47.40;;;;;;4975687;28;20616;-82
2022/08/14 13:07:07;;;;;;;5.10;4.70;;;36.00;47.70;;;;;;4977664;28;20709;-82
2022/08/14 13:09:34;;;;;;;7.60;4.00;;;35.40;47.10;;;;;;4964311;28;20058;-83
2022/08/14 13:12:04;;;;;;;4.47;4.07;;;36.00;47.80;;;;;;5004583;28;20053;-83